This demonstration page uses our WeatherBlox Daily Observations layout. Learn more.

38.89511, -77.03637

Hourly Observations for September 26, 2015

Temp ( °F °C ) Dew Point ( °F °C ) Humidity (%) Winds ( mph kmh ) Pressure ( in mb ) Visibility ( mi km ) Precip ( " mm )
12:52 am 00:52 Cloudy 66 19 54 12 64 64 NE 10 17 30.3 1026 10 16.09344 0 0
1:52 am 01:52 Cloudy 66 19 55 13 68 68 NE 14 22 30.3 1026 10 16.09344 0 0
2:52 am 02:52 Cloudy 66 19 55 13 68 68 NNE 12 19 30.3 1026 10 16.09344 0 0
3:52 am 03:52 Cloudy 66 19 55 13 68 68 NE 14 22 30.3 1026 10 16.09344 0 0
4:52 am 04:52 Cloudy 64 18 55 13 73 73 NE 15 24 30.3 1026 10 16.09344 0 0
5:52 am 05:52 Cloudy 64 18 54 12 68 68 NE 12 19 30.3 1026 10 16.09344 0 0
6:52 am 06:52 Cloudy 64 18 54 12 68 68 NNE 9 15 30.33 1027 10 16.09344 0 0
7:52 am 07:52 Cloudy 64 18 54 12 68 68 NNE 9 15 30.33 1027 10 16.09344 0 0
8:52 am 08:52 Cloudy 64 18 54 12 68 68 NNE 13 20 30.33 1027 10 16.09344 0 0
9:52 am 09:52 Cloudy 66 19 55 13 68 68 NE 12 19 30.36 1028 10 16.09344 0 0
10:52 am 10:52 Cloudy 70 21 55 13 60 60 ENE 13 20 30.36 1028 10 16.09344 0 0
11:52 am 11:52 Cloudy 70 21 55 13 60 60 ENE 15 24 30.36 1028 9 14.484096 0 0
12:52 pm 12:52 Cloudy 72 22 55 13 57 57 ENE 14 22 30.36 1028 10 16.09344 0 0
1:52 pm 13:52 Cloudy 73 23 55 13 53 53 E 14 22 30.36 1028 10 16.09344 0 0
2:52 pm 14:52 Mostly Cloudy 73 23 55 13 53 53 ENE 21 33 30.33 1027 10 16.09344 0 0
3:52 pm 15:52 Cloudy 73 23 55 13 53 53 E 15 24 30.33 1027 10 16.09344 0 0
4:11 pm 16:11 Cloudy 73 23 55 13 53 53 E 13 20 30.33 1027 10 16.09344 0 0
4:52 pm 16:52 Mostly Cloudy 72 22 55 13 57 57 E 13 20 30.36 1028 10 16.09344 0 0
5:52 pm 17:52 Mostly Cloudy 70 21 54 12 57 57 E 15 24 30.36 1028 10 16.09344 0 0
6:52 pm 18:52 Cloudy 70 21 52 11 53 53 E 15 24 30.36 1028 10 16.09344 0 0
7:52 pm 19:52 Cloudy with Light Rain 66 19 54 12 64 64 ENE 13 20 30.39 1029 10 16.09344 0.001 0.001
8:52 pm 20:52 Cloudy 66 19 55 13 68 68 ENE 12 19 30.39 1029 10 16.09344 0.001 0.001
9:52 pm 21:52 Cloudy 66 19 54 12 64 64 E 10 17 30.39 1029 10 16.09344 0 0
10:52 pm 22:52 Cloudy 64 18 54 12 68 68 ENE 15 24 30.39 1029 10 16.09344 0 0
11:52 pm 23:52 Mostly Cloudy 64 18 54 12 68 68 NE 14 22 30.39 1029 10 16.09344 0 0

Powered by AerisWeather